Time;durP1;ratioP1;P1;durP2;ratioP2;P2;SDS_P1;SDS_P2;PMS_P1;PMS_P2;Temp;Humidity;BMP_temperature;BMP_pressure;BME280_temperature;BME280_humidity;BME280_pressure;Samples;Min_cycle;Max_cycle;Signal;HPM_P1;HPM_P2
2023/08/06 00:01:54;;;;;;;3.58;3.47;;;18.30;99.90;;;18.54;100.00;100290.66;5043655;28;20376;-68
2023/08/06 00:04:23;;;;;;;2.95;2.85;;;18.40;99.90;;;18.57;100.00;100289.66;5042235;28;20509;-68
2023/08/06 00:06:51;;;;;;;2.85;2.75;;;18.40;99.90;;;18.56;100.00;100286.13;5044811;28;20131;-68
2023/08/06 00:09:19;;;;;;;2.90;2.80;;;18.40;99.90;;;18.56;100.00;100279.91;5041451;28;20392;-68
2023/08/06 00:11:48;;;;;;;3.63;3.45;;;18.40;99.90;;;18.64;100.00;100289.31;5056679;28;20057;-68
2023/08/06 00:14:17;;;;;;;2.92;2.83;;;18.50;99.90;;;18.63;100.00;100290.28;5041266;28;20050;-68
2023/08/06 00:16:46;;;;;;;3.17;3.07;;;18.40;99.90;;;18.43;100.00;100274.25;5044054;28;20102;-68
2023/08/06 00:19:15;;;;;;;3.05;2.95;;;18.40;99.90;;;18.65;100.00;100280.34;5042516;28;20144;-69
2023/08/06 00:21:43;;;;;;;4.22;3.92;;;18.50;99.90;;;18.72;100.00;100291.63;5043785;28;20044;-69
2023/08/06 00:24:11;;;;;;;3.15;3.05;;;18.50;99.90;;;18.71;100.00;100284.56;5042874;28;20128;-68
2023/08/06 00:26:40;;;;;;;2.78;2.67;;;18.50;99.90;;;18.69;100.00;100290.00;5042343;28;20040;-68
2023/08/06 00:29:08;;;;;;;2.90;2.80;;;18.50;99.90;;;18.68;100.00;100290.91;5043780;28;20052;-68
2023/08/06 00:31:38;;;;;;;3.03;2.92;;;18.50;99.90;;;18.76;100.00;100293.22;5041539;28;20132;-68
2023/08/06 00:34:06;;;;;;;3.10;3.00;;;18.50;99.90;;;18.76;100.00;100299.47;5044644;28;20041;-67
2023/08/06 00:36:34;;;;;;;2.92;2.83;;;18.50;99.90;;;18.77;100.00;100289.63;5032874;28;20077;-68
2023/08/06 00:39:03;;;;;;;2.75;2.65;;;18.60;99.90;;;18.81;100.00;100302.78;5048216;28;20061;-68
2023/08/06 00:41:31;;;;;;;2.75;2.65;;;18.60;99.90;;;18.84;100.00;100294.63;5032636;28;20053;-68
2023/08/06 00:44:00;;;;;;;2.70;2.60;;;18.60;99.90;;;18.84;100.00;100291.06;5049276;28;20437;-68
2023/08/06 00:46:28;;;;;;;2.90;2.80;;;18.60;99.90;;;18.80;100.00;100294.81;5043241;28;20099;-68
2023/08/06 00:48:58;;;;;;;3.15;3.05;;;18.60;99.90;;;18.76;100.00;100294.09;5054750;28;20041;-68
2023/08/06 00:51:27;;;;;;;3.00;2.90;;;18.60;99.90;;;18.72;100.00;100295.19;5075434;28;20081;-68
2023/08/06 00:53:57;;;;;;;3.17;3.08;;;18.50;99.90;;;18.66;100.00;100294.63;5041470;28;20495;-68
2023/08/06 00:56:26;;;;;;;3.45;3.20;;;18.50;99.90;;;18.44;100.00;100291.19;5044207;28;20142;-68
2023/08/06 00:58:55;;;;;;;3.55;3.45;;;18.40;99.90;;;18.48;100.00;100290.97;5031333;28;20457;-67
2023/08/06 01:01:24;;;;;;;2.97;2.88;;;18.30;99.90;;;18.56;100.00;100290.63;5056200;28;20045;-68
2023/08/06 01:03:53;;;;;;;3.50;3.40;;;18.30;99.90;;;18.58;100.00;100288.75;5043492;28;20037;-68
2023/08/06 01:06:41;;;;;;;2.95;2.85;;;18.40;99.90;;;18.60;100.00;100298.44;5041982;28;20042;-68
2023/08/06 01:09:28;;;;;;;3.15;3.05;;;18.40;99.90;;;18.65;100.00;100288.38;5060123;28;20050;-68
2023/08/06 01:12:07;;;;;;;3.30;3.20;;;18.40;99.90;;;18.69;100.00;100294.47;5045113;28;20045;-68
2023/08/06 01:14:49;;;;;;;3.28;3.17;;;18.50;99.90;;;18.73;100.00;100299.63;5061260;28;20045;-68
2023/08/06 01:17:18;;;;;;;2.80;2.70;;;18.50;99.90;;;18.77;100.00;100295.88;5060417;28;20049;-68
2023/08/06 01:19:46;;;;;;;2.83;2.72;;;18.50;99.90;;;18.77;100.00;100300.34;5048209;28;20052;-68
2023/08/06 01:22:16;;;;;;;2.90;2.80;;;18.50;99.90;;;18.82;100.00;100307.22;5048251;28;20041;-70
2023/08/06 01:24:51;;;;;;;2.73;2.63;;;18.60;99.90;;;18.82;100.00;100304.53;5045259;28;20049;-68
2023/08/06 01:27:38;;;;;;;2.75;2.65;;;18.60;99.90;;;18.66;100.00;100305.34;5053062;28;20299;-68
2023/08/06 01:30:13;;;;;;;2.83;2.72;;;18.60;99.90;;;18.85;100.00;100315.09;5044034;28;20435;-68
2023/08/06 01:32:46;;;;;;;2.97;2.88;;;18.60;99.90;;;18.84;100.00;100308.00;5045795;28;20453;-68
2023/08/06 01:35:18;;;;;;;2.75;2.65;;;18.60;99.90;;;18.37;100.00;100225.44;5047560;28;20422;-68
2023/08/06 01:37:49;;;;;;;2.65;2.55;;;18.60;99.90;;;18.87;100.00;100315.06;5035901;28;20443;-68
2023/08/06 01:40:17;;;;;;;2.70;2.60;;;18.60;99.90;;;18.79;100.00;100304.66;5036222;28;20136;-68
2023/08/06 01:42:46;;;;;;;3.22;3.13;;;18.60;99.90;;;18.97;100.00;100321.69;5051525;28;20045;-69
2023/08/06 01:45:15;;;;;;;3.20;3.10;;;18.70;99.90;;;18.96;100.00;100316.41;5076222;28;20053;-68
2023/08/06 01:47:43;;;;;;;3.38;3.28;;;18.70;99.90;;;18.88;100.00;100314.09;5046059;28;20072;-68
2023/08/06 01:50:12;;;;;;;3.50;3.40;;;18.60;99.90;;;18.92;100.00;100321.94;5045439;28;20045;-69
2023/08/06 01:52:40;;;;;;;2.88;2.78;;;18.60;99.90;;;18.97;100.00;100324.38;5046420;28;20053;-69
2023/08/06 01:55:10;;;;;;;3.47;3.38;;;18.70;99.90;;;18.93;100.00;100323.66;5059962;28;20380;-69
2023/08/06 01:57:38;;;;;;;2.80;2.70;;;18.70;99.90;;;18.95;100.00;100325.41;5058828;28;20087;-69
2023/08/06 02:00:08;;;;;;;2.70;2.60;;;18.60;99.90;;;18.99;100.00;100332.38;5042595;28;20469;-68
2023/08/06 02:02:43;;;;;;;3.08;2.97;;;18.70;99.90;;;18.96;100.00;100329.81;5046297;28;20433;-68
2023/08/06 02:05:11;;;;;;;2.70;2.60;;;18.70;99.90;;;18.95;100.00;100334.28;5045633;28;20049;-68
2023/08/06 02:07:40;;;;;;;2.53;2.42;;;18.60;99.90;;;18.95;100.00;100341.50;5045217;28;20053;-69
2023/08/06 02:10:10;;;;;;;2.95;2.85;;;18.70;99.90;;;18.98;100.00;100338.66;5046437;28;20057;-69
2023/08/06 02:12:39;;;;;;;3.08;2.97;;;18.70;99.90;;;18.97;100.00;100344.97;5044172;28;20049;-70
2023/08/06 02:15:09;;;;;;;2.83;2.72;;;18.70;99.90;;;18.92;100.00;100343.38;5058840;28;20052;-70
2023/08/06 02:17:37;;;;;;;2.95;2.85;;;18.70;99.90;;;18.88;100.00;100347.13;5035158;28;20046;-68
2023/08/06 02:20:08;;;;;;;4.28;3.88;;;18.60;99.90;;;18.89;100.00;100353.38;5041037;28;20053;-69
2023/08/06 02:22:36;;;;;;;3.05;2.95;;;18.60;99.90;;;18.90;100.00;100355.09;5034047;28;20045;-69
2023/08/06 02:25:06;;;;;;;2.80;2.70;;;18.60;99.90;;;18.82;100.00;100325.97;5038166;28;20041;-68
2023/08/06 02:27:35;;;;;;;3.05;2.95;;;18.70;99.90;;;18.90;100.00;100347.06;5044429;28;20091;-68
2023/08/06 02:30:05;;;;;;;2.80;2.70;;;18.70;99.90;;;18.97;100.00;100344.97;5043290;28;20042;-68
2023/08/06 02:32:35;;;;;;;2.97;2.88;;;18.80;99.90;;;18.96;100.00;100344.09;5045819;28;20037;-68
2023/08/06 02:35:04;;;;;;;2.70;2.60;;;18.80;99.90;;;18.92;100.00;100348.72;5066111;28;20084;-69
2023/08/06 02:37:35;;;;;;;3.13;3.03;;;18.70;99.90;;;18.87;100.00;100345.38;5042101;28;20061;-68
2023/08/06 02:40:04;;;;;;;2.97;2.88;;;18.70;99.90;;;18.78;100.00;100344.94;5060312;28;20067;-69
2023/08/06 02:42:32;;;;;;;3.30;3.20;;;18.60;99.90;;;18.74;100.00;100338.84;5043303;28;20049;-68
2023/08/06 02:45:02;;;;;;;3.10;3.00;;;18.60;99.90;;;18.58;100.00;100345.84;5043371;28;20059;-70
2023/08/06 02:47:31;;;;;;;2.90;2.80;;;18.50;99.90;;;18.65;100.00;100347.34;5059436;28;20164;-69
2023/08/06 02:50:00;;;;;;;2.80;2.70;;;18.50;99.90;;;17.93;100.00;100224.75;5042094;28;20133;-68
2023/08/06 02:52:29;;;;;;;2.90;2.80;;;18.50;99.90;;;18.67;100.00;100349.94;5060435;28;20048;-69
2023/08/06 02:55:00;;;;;;;3.10;3.00;;;18.50;99.90;;;18.60;100.00;100346.66;5057045;28;20046;-68
2023/08/06 02:57:30;;;;;;;3.42;3.22;;;18.40;99.90;;;18.52;100.00;100356.88;5048941;28;20056;-68
2023/08/06 02:59:58;;;;;;;3.20;3.10;;;18.30;99.90;;;18.44;100.00;100350.97;5032970;28;20115;-69
2023/08/06 03:02:29;;;;;;;3.08;2.97;;;18.40;99.90;;;18.41;100.00;100355.53;5048553;28;20128;-69
2023/08/06 03:05:07;;;;;;;2.95;2.85;;;18.30;99.90;;;18.31;100.00;100355.09;5040321;28;20427;-69
2023/08/06 03:07:40;;;;;;;3.75;3.58;;;18.20;99.90;;;18.38;100.00;100361.06;5057021;28;20047;-69
2023/08/06 03:10:17;;;;;;;3.08;2.97;;;18.20;99.90;;;18.40;100.00;100362.72;5049623;28;20079;-69
2023/08/06 03:12:46;;;;;;;2.75;2.65;;;18.20;99.90;;;18.36;100.00;100363.81;5055638;28;20053;-69
2023/08/06 03:15:14;;;;;;;3.20;3.10;;;18.20;99.90;;;18.39;100.00;100368.16;5075995;28;20059;-69
2023/08/06 03:17:46;;;;;;;3.30;3.10;;;18.20;99.90;;;18.39;100.00;100363.66;5056867;28;20103;-68
2023/08/06 03:20:15;;;;;;;3.03;2.92;;;18.20;99.90;;;18.38;100.00;100372.66;5010098;28;1099180;-65
2023/08/06 03:22:44;;;;;;;3.70;3.53;;;18.20;99.90;;;18.37;100.00;100370.03;5065890;28;20049;-66
2023/08/06 03:25:12;;;;;;;3.83;3.63;;;18.20;99.90;;;18.31;100.00;100375.66;5049049;28;20491;-66
2023/08/06 03:27:44;;;;;;;4.10;3.90;;;18.20;99.90;;;18.32;100.00;100377.38;5051000;28;20050;-67
2023/08/06 03:30:15;;;;;;;3.10;3.00;;;18.10;99.90;;;18.35;100.00;100391.50;5057725;28;20049;-66
2023/08/06 03:32:47;;;;;;;3.90;3.70;;;18.20;99.90;;;18.18;100.00;100387.81;5059953;28;20483;-66
2023/08/06 03:35:18;;;;;;;3.60;3.50;;;18.00;99.90;;;18.07;100.00;100388.28;5053020;28;20049;-65
2023/08/06 03:37:46;;;;;;;3.15;3.05;;;17.90;99.90;;;18.01;100.00;100394.78;5060325;28;20497;-65
2023/08/06 03:40:15;;;;;;;4.25;3.88;;;17.80;99.90;;;17.63;100.00;100398.19;5054355;28;20065;-65
2023/08/06 03:42:43;;;;;;;3.70;3.50;;;17.60;99.90;;;17.38;100.00;100397.38;5075025;28;20119;-67
2023/08/06 03:45:12;;;;;;;4.05;3.75;;;17.40;99.90;;;17.26;100.00;100400.56;5044027;28;20045;-67
2023/08/06 03:47:41;;;;;;;3.80;3.60;;;17.20;99.90;;;17.27;100.00;100398.72;5059136;28;20384;-67
2023/08/06 03:50:12;;;;;;;3.40;3.30;;;17.10;99.90;;;17.14;100.00;100401.03;5057976;28;20303;-67
2023/08/06 03:52:40;;;;;;;4.07;3.88;;;17.00;99.90;;;17.10;100.00;100397.59;5056574;28;20394;-66
2023/08/06 03:55:09;;;;;;;3.67;3.55;;;17.00;99.90;;;17.21;100.00;100410.53;5077209;28;20045;-67
2023/08/06 03:57:38;;;;;;;3.17;3.08;;;17.00;99.90;;;17.27;100.00;100414.75;5065257;28;20403;-66
2023/08/06 04:00:08;;;;;;;3.42;3.33;;;17.10;99.90;;;17.31;100.00;100411.03;5043201;28;20045;-66
2023/08/06 04:02:43;;;;;;;3.72;3.53;;;17.20;99.90;;;17.06;100.00;100382.59;5033195;28;20520;-67
2023/08/06 04:05:15;;;;;;;3.20;3.10;;;17.10;99.90;;;17.31;100.00;100416.38;5048038;28;20136;-67
2023/08/06 04:07:43;;;;;;;3.38;3.28;;;17.10;99.90;;;17.31;100.00;100411.91;5040801;28;20502;-67
2023/08/06 04:10:12;;;;;;;3.78;3.63;;;17.20;99.90;;;17.29;100.00;100412.91;5059693;28;20045;-67
2023/08/06 04:12:40;;;;;;;3.08;2.97;;;17.20;99.90;;;17.36;100.00;100419.78;5032749;28;20506;-67
2023/08/06 04:15:09;;;;;;;3.10;3.00;;;17.20;99.90;;;17.42;100.00;100422.22;5032899;28;20037;-67
2023/08/06 04:17:38;;;;;;;4.40;4.20;;;17.20;99.90;;;17.33;100.00;100423.44;5039519;28;20103;-67
2023/08/06 04:20:08;;;;;;;3.10;3.00;;;17.20;99.90;;;17.29;100.00;100427.16;5072353;28;20152;-67
2023/08/06 04:22:39;;;;;;;4.55;4.30;;;17.20;99.90;;;17.37;100.00;100429.53;5042794;28;20045;-67
2023/08/06 04:25:08;;;;;;;3.35;3.25;;;17.20;99.90;;;17.25;100.00;100433.53;5042114;28;20474;-67
2023/08/06 04:27:41;;;;;;;3.88;3.67;;;17.10;99.90;;;16.98;100.00;100435.47;5059040;28;20037;-67
2023/08/06 04:30:12;;;;;;;3.17;3.08;;;16.80;99.90;;;17.14;100.00;100438.44;5064655;28;20049;-67
2023/08/06 04:32:41;;;;;;;3.15;3.05;;;16.90;99.90;;;17.02;100.00;100441.56;5042531;28;20516;-66
2023/08/06 04:35:09;;;;;;;3.58;3.47;;;16.80;99.90;;;16.87;100.00;100444.81;5064657;28;20117;-67
2023/08/06 04:37:40;;;;;;;3.75;3.55;;;16.60;99.90;;;16.67;100.00;100441.97;5047261;28;20102;-66
2023/08/06 04:40:10;;;;;;;3.30;3.20;;;16.50;99.90;;;16.70;100.00;100444.56;5042660;28;20099;-67
2023/08/06 04:42:38;;;;;;;3.03;2.92;;;16.40;99.90;;;16.70;100.00;100472.16;5056960;28;20046;-66
2023/08/06 04:45:10;;;;;;;3.55;3.45;;;16.40;99.90;;;16.66;100.00;100457.16;5043328;28;20049;-67
2023/08/06 04:47:38;;;;;;;3.08;2.97;;;16.40;99.90;;;16.66;100.00;100461.63;5040242;28;20050;-67
2023/08/06 04:50:07;;;;;;;3.03;2.92;;;16.40;99.90;;;16.49;100.00;100458.69;5031247;28;20049;-67
2023/08/06 04:52:36;;;;;;;3.00;2.90;;;16.30;99.90;;;16.56;100.00;100458.41;5032371;28;20045;-67
2023/08/06 04:55:07;;;;;;;3.53;3.42;;;16.30;99.90;;;16.46;100.00;100469.41;5032388;28;20406;-66
2023/08/06 04:57:35;;;;;;;2.92;2.83;;;16.30;99.90;;;16.74;100.00;100464.91;5037981;28;20415;-67
2023/08/06 05:00:05;;;;;;;3.72;3.53;;;16.40;99.90;;;16.94;100.00;100467.69;5041570;28;20409;-66
2023/08/06 05:02:34;;;;;;;3.10;3.00;;;16.60;99.90;;;17.10;100.00;100469.75;5043240;28;20374;-67
2023/08/06 05:05:03;;;;;;;3.22;3.13;;;16.90;99.90;;;17.12;100.00;100459.00;5056065;28;20111;-67
2023/08/06 05:07:31;;;;;;;3.17;3.00;;;17.00;99.90;;;17.20;100.00;100472.94;5043590;28;20559;-67
2023/08/06 05:10:00;;;;;;;3.72;3.53;;;17.00;99.90;;;17.14;100.00;100483.88;5040008;28;20043;-67
2023/08/06 05:12:29;;;;;;;3.10;3.00;;;16.90;99.90;;;17.06;100.00;100480.59;5043257;28;20049;-67
2023/08/06 05:14:58;;;;;;;3.90;3.60;;;16.90;99.90;;;17.07;100.00;100488.56;5053187;28;20050;-68
2023/08/06 05:17:26;;;;;;;3.92;3.70;;;16.90;99.90;;;16.87;100.00;100471.53;5041631;28;20045;-67
2023/08/06 05:19:55;;;;;;;3.72;3.53;;;16.80;99.90;;;16.95;100.00;100485.47;5041556;28;20081;-67
2023/08/06 05:22:23;;;;;;;4.15;3.95;;;16.80;99.90;;;17.15;100.00;100491.81;5042220;28;20324;-68
2023/08/06 05:24:52;;;;;;;3.35;3.20;;;16.90;99.90;;;17.11;100.00;100500.88;5041089;28;20559;-67
2023/08/06 05:27:20;;;;;;;3.35;3.25;;;16.90;99.90;;;17.19;100.00;100500.59;5042722;28;20148;-67
2023/08/06 05:29:50;;;;;;;2.95;2.85;;;17.00;99.90;;;17.27;100.00;100506.53;5040323;28;20456;-67
2023/08/06 05:32:18;;;;;;;5.60;5.13;;;17.10;99.90;;;17.17;100.00;100508.69;5043592;28;20041;-67
2023/08/06 05:34:47;;;;;;;3.30;3.20;;;17.00;99.90;;;17.23;100.00;100509.41;5031732;28;20406;-67
2023/08/06 05:37:15;;;;;;;3.75;3.55;;;17.10;99.90;;;17.06;100.00;100504.66;5032299;28;20079;-67
2023/08/06 05:39:44;;;;;;;3.90;3.70;;;17.00;99.90;;;17.14;100.00;100519.50;5031576;28;20476;-67
2023/08/06 05:42:12;;;;;;;3.22;3.13;;;17.00;99.90;;;16.89;100.00;100521.31;5031529;28;20453;-67
2023/08/06 05:44:41;;;;;;;3.75;3.42;;;16.80;99.90;;;16.86;100.00;100515.22;5039673;28;20402;-67
2023/08/06 05:47:10;;;;;;;3.42;3.33;;;16.70;99.90;;;16.65;100.00;100532.84;5054155;28;20037;-66
2023/08/06 05:49:39;;;;;;;3.70;3.50;;;16.60;99.90;;;16.77;100.00;100526.22;5042379;28;20628;-67
2023/08/06 05:52:08;;;;;;;3.40;3.30;;;16.50;99.90;;;16.68;100.00;100526.53;5040340;28;20807;-67
2023/08/06 05:54:37;;;;;;;3.60;3.40;;;16.50;99.90;;;16.63;100.00;100526.69;5046056;28;20048;-68
2023/08/06 05:57:06;;;;;;;3.20;3.10;;;16.40;99.90;;;16.58;100.00;100533.13;5047192;28;20069;-68
2023/08/06 05:59:35;;;;;;;4.03;3.83;;;16.40;99.90;;;16.38;100.00;100541.75;5042743;28;20057;-70
2023/08/06 06:02:04;;;;;;;3.25;3.15;;;16.20;99.90;;;16.36;100.00;100534.72;5046325;28;20406;-66
2023/08/06 06:04:34;;;;;;;3.40;3.30;;;16.10;99.90;;;16.43;100.00;100529.16;5060369;28;20550;-66
2023/08/06 06:07:02;;;;;;;3.43;3.30;;;16.20;99.90;;;16.37;100.00;100539.16;5045767;28;20111;-66
2023/08/06 06:09:30;;;;;;;3.20;3.10;;;16.20;99.90;;;16.48;100.00;100553.00;5045761;28;20296;-66
2023/08/06 06:11:59;;;;;;;3.53;3.42;;;16.20;99.90;;;16.43;100.00;100550.50;5044219;28;20049;-67
2023/08/06 06:14:27;;;;;;;3.33;3.22;;;16.20;99.90;;;16.44;100.00;100527.34;5046288;28;20072;-67
2023/08/06 06:16:56;;;;;;;4.25;4.05;;;16.30;99.90;;;16.49;100.00;100547.63;5043565;28;20111;-67
2023/08/06 06:19:24;;;;;;;3.88;3.67;;;16.30;99.90;;;16.61;100.00;100549.91;5046534;28;20049;-67
2023/08/06 06:21:58;;;;;;;3.85;3.65;;;16.40;99.90;;;16.50;100.00;100549.41;5034793;28;20403;-66
2023/08/06 06:24:26;;;;;;;3.38;3.28;;;16.30;99.90;;;16.45;100.00;100556.66;5035001;28;20096;-66
2023/08/06 06:26:54;;;;;;;4.60;4.20;;;16.30;99.90;;;16.38;100.00;100555.09;5034629;28;20469;-67
2023/08/06 06:29:23;;;;;;;3.80;3.60;;;16.20;99.90;;;16.39;100.00;100564.00;5034536;28;20099;-69
2023/08/06 06:31:51;;;;;;;3.25;3.15;;;16.10;99.90;;;16.61;100.00;100560.59;5044881;28;20144;-69
2023/08/06 06:34:20;;;;;;;3.72;3.53;;;16.30;99.90;;;16.04;100.00;100469.09;5043840;28;20107;-69
2023/08/06 06:36:48;;;;;;;3.60;3.40;;;16.30;99.90;;;16.58;100.00;100558.03;5045744;28;20052;-68
2023/08/06 06:39:20;;;;;;;3.25;3.15;;;16.30;99.90;;;16.65;100.00;100562.22;5043112;28;20149;-67
2023/08/06 06:41:51;;;;;;;3.20;3.10;;;16.40;99.90;;;16.60;100.00;100556.19;5042653;28;20495;-69
2023/08/06 06:44:26;;;;;;;3.30;3.10;;;16.40;99.90;;;16.54;100.00;100567.06;5059279;28;20079;-69
2023/08/06 06:47:00;;;;;;;3.58;3.30;;;16.40;99.90;;;16.49;100.00;100570.81;5044614;28;20136;-69
2023/08/06 06:49:33;;;;;;;6.13;3.95;;;16.30;99.90;;;15.99;100.00;100487.91;5049427;28;20045;-68
2023/08/06 06:52:02;;;;;;;10.10;4.30;;;16.30;99.90;;;16.57;100.00;100582.97;5043099;28;20072;-70
2023/08/06 06:54:32;;;;;;;3.20;3.10;;;16.30;99.90;;;16.60;100.00;100580.22;5044842;28;20095;-71
2023/08/06 06:57:01;;;;;;;3.78;3.58;;;16.30;99.90;;;16.59;100.00;100594.47;5043832;28;20049;-70
2023/08/06 06:59:29;;;;;;;3.30;3.20;;;16.40;99.90;;;16.64;100.00;100594.34;5043801;28;20052;-70
2023/08/06 07:01:58;;;;;;;3.22;3.13;;;16.40;99.90;;;16.89;100.00;100579.22;5056529;28;20046;-69
2023/08/06 07:04:26;;;;;;;4.07;3.63;;;16.60;99.90;;;16.85;99.45;100586.47;5044160;28;20044;-71
2023/08/06 07:06:54;;;;;;;3.45;3.35;;;16.60;99.90;;;16.73;97.72;100589.56;5042133;28;20503;-67
2023/08/06 07:09:23;;;;;;;3.17;3.08;;;16.50;99.90;;;16.78;98.77;100584.91;5045973;28;20130;-70
2023/08/06 07:11:53;;;;;;;3.72;3.58;;;16.50;99.90;;;16.67;99.04;100599.56;5057351;28;20410;-69
2023/08/06 07:14:22;;;;;;;4.15;3.95;;;16.40;99.90;;;16.77;97.97;100601.88;5034109;28;20395;-72
2023/08/06 07:16:50;;;;;;;3.30;3.20;;;16.50;99.90;;;16.79;96.49;100593.81;5033724;28;20072;-71
2023/08/06 07:19:19;;;;;;;3.38;3.28;;;16.60;99.90;;;16.83;97.24;100600.78;5033807;28;20049;-72
2023/08/06 07:21:48;;;;;;;3.72;3.53;;;16.50;99.90;;;16.99;96.84;100599.34;5035440;28;20380;-70
2023/08/06 07:24:17;;;;;;;3.15;3.05;;;16.70;99.90;;;17.08;95.37;100602.56;5043080;28;20466;-68
2023/08/06 07:26:45;;;;;;;3.58;3.47;;;16.80;99.90;;;17.25;95.18;100614.47;5043932;28;20159;-69
2023/08/06 07:29:19;;;;;;;3.30;3.20;;;17.00;99.90;;;16.67;95.37;100496.28;5042243;28;20139;-74
2023/08/06 07:31:47;;;;;;;3.78;3.58;;;17.10;99.90;;;17.31;95.63;100616.91;5041333;28;20123;-69
2023/08/06 07:34:16;;;;;;;3.67;3.47;;;17.10;99.90;;;17.29;95.14;100613.41;5044606;28;20040;-75
2023/08/06 07:36:45;;;;;;;3.75;3.55;;;17.10;99.90;;;17.46;95.13;100619.06;5042360;28;20069;-69
2023/08/06 07:39:14;;;;;;;3.35;3.25;;;17.20;99.90;;;17.50;94.09;100615.38;5043634;28;20395;-68
2023/08/06 07:41:42;;;;;;;3.25;3.15;;;17.30;99.90;;;17.52;94.51;100624.19;5043058;28;20060;-68
2023/08/06 07:44:10;;;;;;;3.20;3.10;;;17.30;99.90;;;17.59;93.87;100620.38;5042964;28;20049;-68
2023/08/06 07:46:40;;;;;;;3.90;3.70;;;17.30;99.90;;;17.62;94.02;100620.25;5043386;28;20487;-68
2023/08/06 07:49:10;;;;;;;3.25;3.15;;;17.40;99.90;;;17.66;94.15;100617.41;5042117;28;20045;-68
2023/08/06 07:51:39;;;;;;;3.17;3.08;;;17.40;99.90;;;17.71;94.03;100617.25;5044592;28;20202;-69
2023/08/06 07:54:07;;;;;;;3.30;3.20;;;17.50;99.90;;;17.96;92.94;100626.09;5032750;28;20084;-67
2023/08/06 07:56:36;;;;;;;3.30;3.20;;;17.70;99.90;;;18.08;91.58;100630.94;5032641;28;20045;-69
2023/08/06 07:59:05;;;;;;;4.60;3.28;;;17.80;99.90;;;18.09;90.51;100624.66;5032758;28;20069;-68
2023/08/06 08:01:33;;;;;;;3.08;2.97;;;17.80;99.90;;;17.99;89.21;100621.47;5049341;28;20195;-69
2023/08/06 08:04:04;;;;;;;3.30;3.10;;;17.80;99.90;;;18.18;89.21;100621.63;5042866;28;20061;-74
2023/08/06 08:06:34;;;;;;;3.47;3.38;;;17.90;99.90;;;17.92;88.79;100613.75;5042747;28;20438;-68
2023/08/06 08:09:02;;;;;;;3.20;3.10;;;17.80;99.90;;;18.10;89.84;100626.41;5057102;28;20083;-68
2023/08/06 08:11:31;;;;;;;3.00;2.90;;;17.80;99.90;;;18.23;90.01;100627.69;5043695;28;20125;-68
2023/08/06 08:13:59;;;;;;;2.83;2.72;;;18.00;99.90;;;18.34;89.96;100622.78;5040655;28;20068;-67
2023/08/06 08:16:27;;;;;;;3.90;3.70;;;18.10;99.90;;;18.60;89.61;100632.47;5055657;28;20095;-68
2023/08/06 08:18:56;;;;;;;3.70;3.50;;;18.30;99.90;;;18.25;88.04;100620.47;5043932;28;20370;-69
2023/08/06 08:21:26;;;;;;;3.85;3.65;;;18.10;99.90;;;18.11;87.55;100629.97;5056151;28;20179;-73
2023/08/06 08:23:55;;;;;;;3.10;3.00;;;17.90;99.90;;;18.23;86.45;100633.03;5043092;28;20376;-70
2023/08/06 08:26:24;;;;;;;3.38;3.28;;;18.00;99.90;;;18.26;86.98;100632.03;5042515;28;20398;-72
2023/08/06 08:28:52;;;;;;;3.63;3.42;;;18.00;99.90;;;18.06;86.01;100638.16;5042279;28;20047;-73
2023/08/06 08:31:21;;;;;;;3.50;3.30;;;18.00;99.90;;;17.96;85.70;100626.09;5043008;28;20053;-69
2023/08/06 08:33:50;;;;;;;3.75;3.60;;;17.80;99.90;;;18.01;87.82;100642.81;5041009;28;20592;-69
2023/08/06 08:36:22;;;;;;;3.55;3.35;;;17.80;99.90;;;18.15;86.84;100644.97;5040164;28;20069;-70
2023/08/06 08:38:53;;;;;;;3.15;3.05;;;17.90;99.90;;;18.24;86.94;100648.16;5040271;28;20115;-70
2023/08/06 08:41:22;;;;;;;4.05;3.85;;;18.00;99.90;;;18.12;84.51;100637.06;5042719;28;20099;-68
2023/08/06 08:43:52;;;;;;;3.83;3.60;;;18.00;99.90;;;17.91;85.63;100660.16;5053989;28;20399;-71
2023/08/06 08:46:21;;;;;;;3.90;3.70;;;17.80;99.90;;;17.98;85.49;100657.19;5042151;28;20051;-69
2023/08/06 08:48:49;;;;;;;2.97;2.88;;;17.80;99.90;;;18.38;84.67;100658.31;5041461;28;20280;-69
2023/08/06 08:51:18;;;;;;;4.00;3.70;;;18.10;99.90;;;18.24;84.17;100629.41;5043027;28;20052;-70
2023/08/06 08:53:48;;;;;;;3.58;3.40;;;18.20;99.90;;;18.44;83.45;100629.53;5041104;28;20104;-69
2023/08/06 08:56:18;;;;;;;3.47;3.28;;;18.30;99.90;;;17.91;82.28;100547.75;5047614;28;20050;-69
2023/08/06 08:58:46;;;;;;;2.92;2.83;;;18.40;99.90;;;18.53;82.55;100661.31;5040568;28;20072;-69
2023/08/06 09:01:16;;;;;;;3.83;3.63;;;18.30;99.90;;;18.76;81.28;100665.72;5058408;28;20049;-69
2023/08/06 09:03:45;;;;;;;2.95;2.85;;;18.50;99.90;;;18.75;80.38;100672.03;5041682;28;20037;-71
2023/08/06 09:06:14;;;;;;;3.92;3.72;;;18.60;99.90;;;18.74;78.82;100671.16;5042453;28;20494;-73
2023/08/06 09:08:50;;;;;;;3.60;3.50;;;18.60;99.90;;;18.85;78.88;100674.25;5042800;28;20095;-74
2023/08/06 09:11:21;;;;;;;3.28;3.17;;;18.60;99.90;;;18.89;79.64;100673.19;5039964;28;20494;-67
2023/08/06 09:13:50;;;;;;;3.03;2.92;;;18.70;99.90;;;18.75;81.23;100678.28;5031848;28;20383;-75
2023/08/06 09:16:18;;;;;;;3.53;3.42;;;18.60;99.90;;;18.97;80.97;100683.59;5031870;28;20131;-71
2023/08/06 09:18:47;;;;;;;3.05;2.95;;;18.70;99.90;;;19.14;80.20;100681.09;5041213;28;20046;-72
2023/08/06 09:21:16;;;;;;;3.95;3.75;;;19.00;99.90;;;18.73;79.80;100674.78;5031437;28;20581;-70
2023/08/06 09:23:45;;;;;;;3.03;2.92;;;18.60;99.90;;;18.82;80.18;100685.13;5039669;28;20502;-70
2023/08/06 09:26:14;;;;;;;3.35;3.25;;;18.60;99.90;;;18.88;80.82;100684.88;5042525;28;20483;-71
2023/08/06 09:28:45;;;;;;;;;;;18.60;99.90;;;19.04;79.56;100690.47;5042043;28;20483;-70
2023/08/06 09:31:13;;;;;;;3.63;3.45;;;18.80;99.90;;;18.83;80.06;100692.19;5048000;28;20366;-70
2023/08/06 09:33:44;;;;;;;2.83;2.72;;;18.70;99.90;;;18.87;80.72;100695.66;5035374;28;20041;-73
2023/08/06 09:36:13;;;;;;;14.05;3.38;;;18.60;99.90;;;18.88;79.54;100703.63;5036049;28;20475;-76
2023/08/06 09:38:41;;;;;;;2.90;2.80;;;18.70;99.90;;;18.81;77.10;100694.06;5035170;28;20487;-76
2023/08/06 09:41:10;;;;;;;3.53;3.42;;;18.60;99.90;;;18.83;77.98;100700.25;5037041;28;20045;-74
2023/08/06 09:43:42;;;;;;;4.10;3.90;;;18.60;99.90;;;18.83;78.76;100708.28;5045237;28;20059;-76
2023/08/06 09:46:16;;;;;;;3.88;3.67;;;18.60;99.90;;;19.04;77.34;100702.97;5046322;28;20052;-71
2023/08/06 09:48:49;;;;;;;2.83;2.72;;;18.80;99.90;;;18.35;77.92;100599.53;5035295;28;20475;-69
2023/08/06 09:51:18;;;;;;;3.40;3.30;;;18.70;99.90;;;19.15;77.84;100716.81;5050534;28;20049;-70
2023/08/06 09:53:50;;;;;;;3.15;3.05;;;18.90;99.90;;;19.03;78.70;100703.94;5036674;28;20187;-69
2023/08/06 09:56:19;;;;;;;3.25;3.15;;;18.90;99.90;;;19.26;78.14;100715.41;5044863;28;20053;-69
2023/08/06 09:58:50;;;;;;;3.45;3.25;;;19.00;99.90;;;19.12;76.67;100719.63;5046168;28;20378;-71
2023/08/06 10:01:21;;;;;;;3.78;3.58;;;18.90;99.90;;;19.14;76.22;100717.75;5043623;28;20457;-69
2023/08/06 10:03:52;;;;;;;3.28;3.17;;;18.90;99.90;;;19.04;76.12;100722.63;5043710;28;20045;-68
2023/08/06 10:06:22;;;;;;;3.40;3.20;;;18.80;99.90;;;18.97;76.46;100720.28;5045811;28;20044;-70
2023/08/06 10:08:51;;;;;;;3.35;3.25;;;18.80;99.90;;;19.08;77.76;100712.66;5044579;28;20367;-70
2023/08/06 10:11:23;;;;;;;3.30;3.20;;;18.90;99.90;;;19.01;77.98;100725.41;5044607;28;20051;-70
2023/08/06 10:13:59;;;;;;;3.22;3.13;;;18.80;99.90;;;19.08;78.87;100726.94;5046055;28;20418;-69
2023/08/06 10:16:29;;;;;;;3.70;3.40;;;18.80;99.90;;;19.19;78.56;100737.19;5043175;28;20119;-71
2023/08/06 10:18:59;;;;;;;3.58;3.38;;;18.90;99.90;;;19.51;78.63;100734.06;5045573;28;20122;-70